createdAt,value
2019-04-06T00:02:12.158Z,32.43
2019-04-06T00:04:41.539Z,33.40
2019-04-06T00:07:11.186Z,33.50
2019-04-06T00:09:42.157Z,31.47
2019-04-06T00:12:11.544Z,33.43
2019-04-06T00:14:40.920Z,31.27
2019-04-06T00:17:10.336Z,31.23
2019-04-06T00:19:40.543Z,31.40
2019-04-06T00:22:11.686Z,34.50
2019-04-06T00:24:42.161Z,32.40
2019-04-06T00:27:11.556Z,31.93
2019-04-06T00:29:41.306Z,29.77
2019-04-06T00:32:19.793Z,32.80
2019-04-06T00:34:49.561Z,33.50
2019-04-06T00:37:18.940Z,33.37
2019-04-06T00:39:50.580Z,33.80
2019-04-06T00:42:20.531Z,34.03
2019-04-06T00:44:51.868Z,34.00
2019-04-06T00:47:21.706Z,33.88
2019-04-06T00:49:53.016Z,35.30
2019-04-06T00:52:22.421Z,33.27
2019-04-06T00:54:52.198Z,33.43
2019-04-06T00:57:21.595Z,34.75
2019-04-06T00:59:51.753Z,34.60
2019-04-06T01:02:22.632Z,37.35
2019-04-06T01:04:52.290Z,34.57
2019-04-06T01:07:23.269Z,32.90
2019-04-06T01:09:53.506Z,33.10
2019-04-06T01:12:23.368Z,34.53
2019-04-06T01:14:54.149Z,35.53
2019-04-06T01:17:23.810Z,34.40
2019-04-06T01:19:53.216Z,36.20
2019-04-06T01:22:23.135Z,35.80
2019-04-06T01:24:52.568Z,34.10
2019-04-06T01:27:22.923Z,36.68
2019-04-06T01:29:52.287Z,33.47
2019-04-06T01:32:22.540Z,34.67
2019-04-06T01:34:53.284Z,33.03
2019-04-06T01:37:22.652Z,33.60
2019-04-06T01:39:53.360Z,33.73
2019-04-06T01:42:23.208Z,32.27
2019-04-06T01:44:52.597Z,32.00
2019-04-06T01:47:23.612Z,31.27
2019-04-06T01:49:53.007Z,32.80
2019-04-06T01:52:23.149Z,32.83
2019-04-06T01:54:52.792Z,33.90
2019-04-06T01:57:22.194Z,32.70
2019-04-06T01:59:52.432Z,33.47
2019-04-06T02:02:27.482Z,32.78
2019-04-06T02:04:57.808Z,33.47
2019-04-06T02:07:29.403Z,34.15
2019-04-06T02:09:58.852Z,34.73
2019-04-06T02:12:29.928Z,36.07
2019-04-06T02:14:59.361Z,35.63
2019-04-06T02:17:29.356Z,32.70
2019-04-06T02:19:59.868Z,33.90
2019-04-06T02:22:29.389Z,33.07
2019-04-06T02:24:58.956Z,32.00
2019-04-06T02:27:28.420Z,31.50
2019-04-06T02:30:24.019Z,33.33
2019-04-06T02:33:14.630Z,32.60
2019-04-06T02:36:09.409Z,30.53
2019-04-06T02:38:54.499Z,33.37
2019-04-06T02:41:41.369Z,32.78
2019-04-06T02:44:10.767Z,32.43
2019-04-06T02:46:40.176Z,32.10
2019-04-06T02:49:09.581Z,33.00
2019-04-06T02:51:39.463Z,32.90
2019-04-06T02:54:08.816Z,34.70
2019-04-06T02:56:46.589Z,35.53
2019-04-06T02:59:10.625Z,33.27
2019-04-06T03:01:43.297Z,33.10
2019-04-06T03:04:13.504Z,32.07
2019-04-06T03:06:43.846Z,32.90
2019-04-06T03:09:13.208Z,30.27
2019-04-06T03:11:43.202Z,30.87
2019-04-06T03:14:15.058Z,31.27
2019-04-06T03:16:44.386Z,29.37
2019-04-06T03:19:13.792Z,29.70
2019-04-06T03:21:43.683Z,29.27
2019-04-06T03:24:14.381Z,30.05
2019-04-06T03:27:00.825Z,29.83
2019-04-06T03:29:21.608Z,31.00
2019-04-06T03:31:51.163Z,29.57
2019-04-06T03:34:23.389Z,31.63
2019-04-06T03:36:53.624Z,32.60
2019-04-06T03:39:26.397Z,30.90
2019-04-06T03:41:59.211Z,31.80
2019-04-06T03:44:29.331Z,29.30
2019-04-06T03:46:59.347Z,27.57
2019-04-06T03:49:28.758Z,27.53
2019-04-06T03:52:13.196Z,29.80
2019-04-06T03:54:43.691Z,27.87
2019-04-06T03:57:16.932Z,27.77
2019-04-06T03:59:46.177Z,28.33
2019-04-06T04:02:18.799Z,29.15
2019-04-06T04:04:49.224Z,27.07
2019-04-06T04:07:19.595Z,28.00
2019-04-06T04:09:49.791Z,28.50
2019-04-06T04:12:20.299Z,28.27
2019-04-06T04:14:49.942Z,28.90
2019-04-06T04:17:20.144Z,26.33
2019-04-06T04:19:51.457Z,28.43
2019-04-06T04:22:21.502Z,26.73
2019-04-06T04:24:52.617Z,26.67
2019-04-06T04:27:29.888Z,27.05
2019-04-06T04:29:55.105Z,25.90
2019-04-06T04:32:26.847Z,28.10
2019-04-06T04:34:56.280Z,26.40
2019-04-06T04:37:25.972Z,26.27
2019-04-06T04:39:55.322Z,25.97
2019-04-06T04:42:25.261Z,27.43
2019-04-06T04:44:54.806Z,29.20
2019-04-06T04:47:26.125Z,27.37
2019-04-06T04:49:58.776Z,30.80
2019-04-06T04:52:28.655Z,29.47
2019-04-06T04:54:58.024Z,29.50
2019-04-06T04:57:39.588Z,30.17
2019-04-06T05:00:06.762Z,32.30
2019-04-06T05:02:36.803Z,30.37
2019-04-06T05:05:09.276Z,30.80
2019-04-06T05:07:38.292Z,32.73
2019-04-06T05:10:09.329Z,31.43
2019-04-06T05:12:40.318Z,31.97
2019-04-06T05:15:11.869Z,32.70
2019-04-06T05:17:41.869Z,30.50
2019-04-06T05:20:11.560Z,31.17
2019-04-06T05:22:41.367Z,29.63
2019-04-06T05:25:14.299Z,29.40
2019-04-06T05:27:52.037Z,29.63
2019-04-06T05:30:18.489Z,32.30
2019-04-06T05:32:48.771Z,30.30
2019-04-06T05:35:19.272Z,30.20
2019-04-06T05:37:49.041Z,31.20
2019-04-06T05:40:23.180Z,31.00
2019-04-06T05:42:53.749Z,31.63
2019-04-06T05:45:23.137Z,32.17
2019-04-06T05:47:57.403Z,32.10
2019-04-06T05:50:27.176Z,30.97
2019-04-06T05:52:58.315Z,30.20
2019-04-06T05:55:28.454Z,33.08
2019-04-06T05:58:03.968Z,32.60
2019-04-06T06:00:36.205Z,34.38
2019-04-06T06:03:11.683Z,32.28
2019-04-06T06:05:42.547Z,32.63
2019-04-06T06:08:13.919Z,31.83
2019-04-06T06:10:44.224Z,31.67
2019-04-06T06:13:15.207Z,31.23
2019-04-06T06:15:46.038Z,32.07
2019-04-06T06:18:25.842Z,32.83
2019-04-06T06:20:50.035Z,33.77
2019-04-06T06:23:19.480Z,38.17
2019-04-06T06:25:49.604Z,37.43
2019-04-06T06:28:21.188Z,37.20
2019-04-06T06:30:51.273Z,37.40
2019-04-06T06:33:20.736Z,38.67
2019-04-06T06:35:50.172Z,37.55
2019-04-06T06:38:20.564Z,36.57
2019-04-06T06:40:50.099Z,39.58
2019-04-06T06:43:20.339Z,39.43
2019-04-06T06:45:57.675Z,40.87
2019-04-06T06:48:26.455Z,40.03
2019-04-06T06:50:56.585Z,38.60
2019-04-06T06:53:26.446Z,40.63
2019-04-06T06:55:56.762Z,38.20
2019-04-06T06:58:26.334Z,37.37
2019-04-06T07:00:56.162Z,39.83
2019-04-06T07:03:25.585Z,41.30
2019-04-06T07:05:55.000Z,41.70
2019-04-06T07:08:25.610Z,43.33
2019-04-06T07:10:59.324Z,41.83
2019-04-06T07:13:29.749Z,40.77
2019-04-06T07:15:59.413Z,39.40
2019-04-06T07:18:28.814Z,38.63
2019-04-06T07:20:58.464Z,37.87
2019-04-06T07:23:28.606Z,39.70
2019-04-06T07:25:59.078Z,37.33
2019-04-06T07:28:37.592Z,37.93
2019-04-06T07:30:59.701Z,36.03
2019-04-06T07:33:29.195Z,38.48
2019-04-06T07:35:59.750Z,36.83
2019-04-06T07:38:37.861Z,35.20
2019-04-06T07:41:06.731Z,37.23
2019-04-06T07:43:36.931Z,36.33
2019-04-06T07:46:07.181Z,37.33
2019-04-06T07:48:36.772Z,37.93
2019-04-06T07:51:07.230Z,36.73
2019-04-06T07:53:37.340Z,35.90
2019-04-06T07:56:07.803Z,36.87
2019-04-06T07:58:48.385Z,35.95
2019-04-06T08:01:12.520Z,34.87
2019-04-06T08:03:41.839Z,35.70
2019-04-06T08:06:11.729Z,36.27
2019-04-06T08:08:42.813Z,36.35
2019-04-06T08:11:12.926Z,35.60
2019-04-06T08:13:42.436Z,35.00
2019-04-06T08:16:11.952Z,34.30
2019-04-06T08:18:41.757Z,32.07
2019-04-06T08:21:12.781Z,32.03
2019-04-06T08:23:42.332Z,34.87
2019-04-06T08:26:12.244Z,35.40
2019-04-06T08:28:42.913Z,33.30
2019-04-06T08:31:12.848Z,34.67
2019-04-06T08:33:43.283Z,31.77
2019-04-06T08:36:12.857Z,30.20
2019-04-06T08:38:42.338Z,30.53
2019-04-06T08:41:12.359Z,32.57
2019-04-06T08:43:41.816Z,30.97
2019-04-06T08:46:12.307Z,28.87
2019-04-06T08:48:42.033Z,28.00
2019-04-06T08:51:11.583Z,28.70
2019-04-06T08:53:41.021Z,29.70
2019-04-06T08:56:10.840Z,29.47
2019-04-06T08:58:45.178Z,30.03
2019-04-06T09:01:16.947Z,32.40
2019-04-06T09:03:46.414Z,29.37
2019-04-06T09:06:20.844Z,27.70
2019-04-06T09:08:51.823Z,26.90
2019-04-06T09:11:23.196Z,27.37
2019-04-06T09:13:53.108Z,26.57
2019-04-06T09:16:22.509Z,26.07
2019-04-06T09:18:52.010Z,24.40
2019-04-06T09:21:22.639Z,26.10
2019-04-06T09:23:53.100Z,25.40
2019-04-06T09:26:22.689Z,24.17
2019-04-06T09:28:52.987Z,23.80
2019-04-06T09:31:22.351Z,24.80
2019-04-06T09:33:51.740Z,25.63
2019-04-06T09:36:23.569Z,26.70
2019-04-06T09:38:53.556Z,23.47
2019-04-06T09:41:25.871Z,24.20
2019-04-06T09:43:54.032Z,23.67
2019-04-06T09:46:35.720Z,23.83
2019-04-06T09:49:23.557Z,23.27
2019-04-06T09:52:18.373Z,21.80
2019-04-06T09:55:13.107Z,20.97
2019-04-06T09:58:02.104Z,22.47
2019-04-06T10:01:09.231Z,25.30
2019-04-06T10:04:12.651Z,25.00
2019-04-06T10:07:01.338Z,23.30
2019-04-06T10:09:51.008Z,22.67
2019-04-06T10:12:39.248Z,22.47
2019-04-06T10:15:34.438Z,22.50
2019-04-06T10:18:22.796Z,19.03
2019-04-06T10:21:16.309Z,19.60
2019-04-06T10:24:23.064Z,20.97
2019-04-06T10:27:02.361Z,25.13
2019-04-06T10:29:55.547Z,23.37
2019-04-06T10:33:08.275Z,25.10
2019-04-06T10:40:05.328Z,27.63
2019-04-06T10:43:21.674Z,23.98
2019-04-06T10:46:39.822Z,26.25
2019-04-06T10:49:49.317Z,23.20
2019-04-06T10:52:59.549Z,24.20
2019-04-06T10:56:11.569Z,26.68
2019-04-06T10:59:35.653Z,25.03
2019-04-06T11:13:38.295Z,26.07
2019-04-06T11:24:07.513Z,23.70
2019-04-06T11:46:03.764Z,21.10
2019-04-06T11:49:27.024Z,20.10
2019-04-06T11:56:50.569Z,22.42
2019-04-06T12:00:26.418Z,22.42
2019-04-06T12:03:45.199Z,20.95
2019-04-06T12:10:28.417Z,17.87
2019-04-06T12:18:12.384Z,17.48
2019-04-06T12:48:22.281Z,14.60
2019-04-06T12:55:30.625Z,16.32
2019-04-06T13:17:46.810Z,16.03
2019-04-06T13:32:24.943Z,14.87
2019-04-06T13:46:46.447Z,13.70
2019-04-06T13:50:11.331Z,12.50
2019-04-06T13:53:34.588Z,12.90
2019-04-06T14:04:03.869Z,12.20
2019-04-06T14:07:44.324Z,12.07
2019-04-06T14:16:11.344Z,13.35
2019-04-06T14:27:15.337Z,12.63
2019-04-06T14:30:39.082Z,13.40
2019-04-06T14:33:18.849Z,12.47
2019-04-06T14:37:11.494Z,11.78
2019-04-06T14:40:26.013Z,12.10
2019-04-06T14:43:45.250Z,12.55
2019-04-06T14:46:49.235Z,12.10
2019-04-06T15:26:17.087Z,9.35
2019-04-06T15:28:55.553Z,9.50
2019-04-06T15:31:49.855Z,9.03
2019-04-06T15:34:27.351Z,9.55
2019-04-06T15:37:16.239Z,8.33
2019-04-06T15:40:04.059Z,9.33
2019-04-06T15:42:45.922Z,8.97
2019-04-06T15:45:40.840Z,8.22
2019-04-06T15:48:39.893Z,7.87
2019-04-06T15:51:25.556Z,8.03
2019-04-06T15:54:11.297Z,7.50
2019-04-06T15:57:03.095Z,7.33
2019-04-06T16:00:07.518Z,7.53
2019-04-06T16:03:09.020Z,8.63
2019-04-06T16:06:00.186Z,9.33
2019-04-06T16:08:53.004Z,10.47
2019-04-06T16:11:45.212Z,10.72
2019-04-06T16:14:37.886Z,10.80
2019-04-06T16:17:25.712Z,10.43
2019-04-06T16:20:32.528Z,10.57
2019-04-06T16:23:23.504Z,10.70
2019-04-06T16:26:22.378Z,12.07
2019-04-06T16:29:26.918Z,10.67
2019-04-06T16:32:15.045Z,11.87
2019-04-06T16:35:03.365Z,11.40
2019-04-06T16:37:44.155Z,11.17
2019-04-06T16:40:34.106Z,11.40
2019-04-06T16:43:22.867Z,11.10
2019-04-06T16:46:10.375Z,12.60
2019-04-06T16:49:05.487Z,12.70
2019-04-06T16:51:55.440Z,12.90
2019-04-06T16:54:36.125Z,12.97
2019-04-06T16:57:24.175Z,12.30
2019-04-06T17:00:18.935Z,14.37
2019-04-06T17:02:57.682Z,13.80
2019-04-06T17:05:37.035Z,13.50
2019-04-06T17:08:20.698Z,11.50
2019-04-06T17:11:25.321Z,11.78
2019-04-06T17:14:25.588Z,11.13
2019-04-06T17:17:16.343Z,11.17
2019-04-06T17:20:11.576Z,10.33
2019-04-06T17:22:55.688Z,10.90
2019-04-06T17:25:42.803Z,11.40
2019-04-06T17:28:32.141Z,11.15
2019-04-06T17:31:26.542Z,11.07
2019-04-06T17:34:13.483Z,10.60
2019-04-06T17:36:49.963Z,11.43
2019-04-06T17:39:26.662Z,10.70
2019-04-06T17:42:14.191Z,10.60
2019-04-06T17:45:12.524Z,11.40
2019-04-06T17:48:00.347Z,11.47
2019-04-06T17:50:47.632Z,9.73
2019-04-06T17:53:26.789Z,10.32
2019-04-06T17:56:18.258Z,10.03
2019-04-06T17:59:14.134Z,9.93
2019-04-06T18:02:07.990Z,10.60
2019-04-06T18:05:05.501Z,10.10
2019-04-06T18:07:55.710Z,8.68
2019-04-06T18:10:48.282Z,9.20
2019-04-06T18:13:41.237Z,9.20
2019-04-06T18:16:11.512Z,10.30
2019-04-06T18:18:41.085Z,9.70
2019-04-06T18:21:11.188Z,10.37
2019-04-06T18:23:40.568Z,9.73
2019-04-06T18:26:09.953Z,8.60
2019-04-06T18:28:39.693Z,8.80
2019-04-06T18:31:16.860Z,9.47
2019-04-06T18:33:50.690Z,9.13
2019-04-06T18:36:22.236Z,8.78
2019-04-06T18:39:00.799Z,8.67
2019-04-06T18:41:30.325Z,8.40
2019-04-06T18:44:00.568Z,8.63
2019-04-06T18:46:30.832Z,8.90
2019-04-06T18:49:05.472Z,8.40
2019-04-06T18:51:35.169Z,8.33
2019-04-06T18:54:05.297Z,8.33
2019-04-06T18:56:35.676Z,8.95
2019-04-06T18:59:05.240Z,8.48
2019-04-06T19:01:34.921Z,8.30
2019-04-06T19:04:04.392Z,7.97
2019-04-06T19:06:34.830Z,7.72
2019-04-06T19:09:06.382Z,8.17
2019-04-06T19:11:35.803Z,8.73
2019-04-06T19:14:05.655Z,8.93
2019-04-06T19:16:36.660Z,8.87
2019-04-06T19:19:06.198Z,9.35
2019-04-06T19:21:35.554Z,8.23
2019-04-06T19:24:05.479Z,8.47
2019-04-06T19:26:37.315Z,8.53
2019-04-06T19:29:07.075Z,8.27
2019-04-06T19:31:37.744Z,8.97
2019-04-06T19:34:07.116Z,7.77
2019-04-06T19:36:36.501Z,9.13
2019-04-06T19:39:14.417Z,10.30
2019-04-06T19:41:44.110Z,8.90
2019-04-06T19:44:13.491Z,9.23
2019-04-06T19:46:43.328Z,10.50
2019-04-06T19:49:13.046Z,9.67
2019-04-06T19:51:42.434Z,9.40
2019-04-06T19:54:11.980Z,10.00
2019-04-06T19:56:41.780Z,9.80
2019-04-06T19:59:12.904Z,9.00
2019-04-06T20:01:42.468Z,8.93
2019-04-06T20:04:11.852Z,9.47
2019-04-06T20:06:41.246Z,9.23
2019-04-06T20:09:10.822Z,7.93
2019-04-06T20:11:41.139Z,9.30
2019-04-06T20:14:10.741Z,8.77
2019-04-06T20:16:40.228Z,7.63
2019-04-06T20:19:10.385Z,7.07
2019-04-06T20:21:39.841Z,7.20
2019-04-06T20:24:09.791Z,6.90
2019-04-06T20:26:40.100Z,7.13
2019-04-06T20:29:10.204Z,6.60
2019-04-06T20:31:39.682Z,6.70
2019-04-06T20:34:09.125Z,6.40
2019-04-06T20:36:38.599Z,6.37
2019-04-06T20:39:10.039Z,5.60
2019-04-06T20:41:40.117Z,5.67
2019-04-06T20:44:09.448Z,6.10
2019-04-06T20:46:39.060Z,5.73
2019-04-06T20:49:09.206Z,5.87
2019-04-06T20:51:38.997Z,5.70
2019-04-06T20:54:09.543Z,5.40
2019-04-06T20:56:38.952Z,5.10
2019-04-06T20:59:08.600Z,5.23
2019-04-06T21:01:38.644Z,5.30
2019-04-06T21:04:08.497Z,5.40
2019-04-06T21:06:37.862Z,5.20
2019-04-06T21:09:13.278Z,5.13
2019-04-06T21:11:42.644Z,5.80
2019-04-06T21:14:12.307Z,4.92
2019-04-06T21:16:43.889Z,5.47
2019-04-06T21:19:13.369Z,4.93
2019-04-06T21:21:43.594Z,5.10
2019-04-06T21:24:13.139Z,5.42
2019-04-06T21:26:43.260Z,5.20
2019-04-06T21:29:12.748Z,5.03
2019-04-06T21:31:43.341Z,5.10
2019-04-06T21:34:14.763Z,5.43
2019-04-06T21:36:43.884Z,5.47
2019-04-06T21:39:13.672Z,5.00
2019-04-06T21:41:43.549Z,5.00
2019-04-06T21:44:12.884Z,5.13
2019-04-06T21:46:42.273Z,5.60
2019-04-06T21:49:11.643Z,4.73
2019-04-06T21:51:41.047Z,5.17
2019-04-06T21:54:10.966Z,5.03
2019-04-06T21:56:41.238Z,5.00
2019-04-06T21:59:11.114Z,5.30
2019-04-06T22:01:41.433Z,4.20
2019-04-06T22:04:22.632Z,4.73
2019-04-06T22:06:42.561Z,4.57
2019-04-06T22:09:17.569Z,5.20
2019-04-06T22:11:46.930Z,5.13
2019-04-06T22:14:17.858Z,5.30
2019-04-06T22:16:47.245Z,5.00
2019-04-06T22:19:17.898Z,5.20
2019-04-06T22:21:48.519Z,4.00
2019-04-06T22:24:18.743Z,4.20
2019-04-06T22:26:48.596Z,5.10
2019-04-06T22:29:18.500Z,4.80
2019-04-06T22:31:48.003Z,4.90
2019-04-06T22:34:18.392Z,5.10
2019-04-06T22:36:47.941Z,4.67
2019-04-06T22:39:18.107Z,4.90
2019-04-06T22:41:47.897Z,3.93
2019-04-06T22:44:18.762Z,5.37
2019-04-06T22:46:48.554Z,5.50
2019-04-06T22:49:18.141Z,4.78
2019-04-06T22:51:48.133Z,5.83
2019-04-06T22:54:18.460Z,5.17
2019-04-06T22:56:48.358Z,4.67
2019-04-06T22:59:18.823Z,4.37
2019-04-06T23:01:49.471Z,5.33
2019-04-06T23:04:26.091Z,5.10
2019-04-06T23:07:05.774Z,6.23
2019-04-06T23:09:35.239Z,5.03
2019-04-06T23:12:05.273Z,4.60
2019-04-06T23:14:35.100Z,4.90
2019-04-06T23:17:06.354Z,5.60
2019-04-06T23:19:36.266Z,4.83
2019-04-06T23:22:07.892Z,4.70
2019-04-06T23:24:37.667Z,4.67
2019-04-06T23:27:08.479Z,4.20
2019-04-06T23:29:38.068Z,5.05
2019-04-06T23:32:07.999Z,5.33
2019-04-06T23:34:37.618Z,5.33
2019-04-06T23:37:07.528Z,5.70
2019-04-06T23:39:36.869Z,5.00
2019-04-06T23:42:08.574Z,5.37
2019-04-06T23:44:38.373Z,5.30
2019-04-06T23:47:08.393Z,5.30
2019-04-06T23:49:38.387Z,5.60
2019-04-06T23:52:09.314Z,5.37
2019-04-06T23:54:38.729Z,5.53
2019-04-06T23:57:09.205Z,5.30
2019-04-06T23:59:38.627Z,6.03
